Sitka Rocky Gutierrez Airport
PASI : now visible

Airfield :











YOU CAN JOIN US ON...

 
LOGIN :

Register | Disclaimer

   EN    FR    IT 

 









Legend :    VFR   Marginal VFR   IFR   Intensive IFR   Very Intensive IFR
Visi :
Ceiling :
>= 8 km
>= 3000ft
5 to 8 km
1000 to 3000 ft
1500m to 5 km
500 to 1000 ft
800 to 1500m
200 to 500 ft
< 800m
< 200 ft
Symbols :   Thunderstorms  Fog  Heavy snow  Heavy precipitations  Wind > 20 kt






- Airport Elevation : 21 ft
- IATA code : SIT


PASI - Sitka Rocky Gutierrez

CURRENT METAR :
  • 270540Z 12009KT 6SM BR OVC014 04/02 A2971 RMK AO2 RAE36 P0001 T00390022

EXPIRED METARs :
  • 270453Z 12007KT 4SM -RA BR OVC016 04/02 A2969 RMK AO2 RAB15 SLP053 P0000 T00390022
  • 270353Z 15006KT 9SM OVC020 04/02 A2968 RMK AO2 RAE37 SLP051 P0001 T00390022
  • 270253Z 17007KT 7SM -RA FEW022 OVC027 04/02 A2967 RMK AO2 SLP046 P0001 60002 T00390022 55004

TAF PASI
Valid from the 27 at 06:00 until the 28 at 06:00 UTC


270526Z 2706/2806 13010KT 5SM -RA BR BKN015 OVC020
FM271200 13014G22KT P6SM -RA OVC015
FM271400 13017G20KT 4SM -RA BR OVC015
TEMPO 2718/2722 2SM -RA BR



MET'MAP, your aeronautical weather chart ! - Copyright ORBIFLY December 2007 - Disclaimer

ORBIFLY MET'MAP TEAM :

Programming & Development : Alexandra Zaïnal
Concept & original design : Baudouin d'Aumeries
Assistance for programming : Marc-Olivier Méhu
Technical & hardware support : Manuel Goepfert

Contact : metmap@orbifly.com




SOURCES & CREDITS :

   NOAA       Earth
Advisory